< Typhoon 200311 2003 Season Typhoon 200313 >
Typhoon 200312 (KROVANH)
General InformationTrack Information on Google MapsDetailed Wind InformationAccess Analytics MapList of All Images || NewsDisaster Info.WeblogResourceGoogle EarthGE AnimationAtom FeedGeoJSON
Detalied Best Track (Time Zone = UTC)
Year Month Day Hour Lat. Long. Pressure (hPa) Wind (kt) Class Image Chart
2003 8 13 18 7.2 156.0 1008 0 2 Image Chart
2003 8 14 00 7.6 155.6 1008 0 2 Image Chart
2003 8 14 06 8.0 155.2 1008 0 2 Image Chart
2003 8 14 12 8.5 154.0 1008 0 2 Image Chart
2003 8 14 18 8.7 152.6 1006 0 2 Image Chart
2003 8 15 00 9.0 151.6 1008 0 2 Image Chart
2003 8 15 06 9.3 150.6 1006 0 2 Image Chart
2003 8 15 12 9.8 149.8 1006 0 2 Image Chart
2003 8 15 18 10.6 149.3 1006 0 2 Image Chart
2003 8 16 00 11.1 148.6 1008 0 2 Image Chart
2003 8 16 06 11.5 147.2 1008 0 2 Image Chart
2003 8 16 12 12.1 146.0 1008 0 2 Image Chart
2003 8 16 18 12.6 144.4 1008 0 2 Image Chart
2003 8 17 00 13.2 143.9 1010 0 2 Image Chart
2003 8 17 06 13.8 143.5 1008 0 2 Image Chart
2003 8 17 12 14.9 142.6 1008 0 2 Image Chart
2003 8 17 18 15.5 141.6 1008 0 2 Image Chart
2003 8 18 00 16.1 141.0 1008 0 2 Image Chart
2003 8 18 06 16.8 140.3 1008 0 2 Image Chart
2003 8 18 12 17.4 139.4 1008 0 2 Image Chart
2003 8 18 18 18.0 138.7 1008 0 2 Image Chart
2003 8 19 00 18.9 137.3 1008 0 2 Image Chart
2003 8 19 06 19.4 136.1 1008 0 2 Image Chart
2003 8 19 12 19.9 134.6 1008 0 2 Image Chart
2003 8 19 18 19.7 133.7 1008 0 2 Image Chart
2003 8 20 00 19.4 132.9 1008 0 2 Image Chart
2003 8 20 06 19.2 132.0 1004 0 2 Image Chart
2003 8 20 12 18.9 131.3 998 35 3 Image Chart
2003 8 20 18 18.7 130.4 990 45 3 Image Chart
2003 8 21 00 18.5 129.4 990 45 3 Image Chart
2003 8 21 06 18.2 128.3 985 50 4 Image Chart
2003 8 21 12 17.9 127.0 980 55 4 Image Chart
2003 8 21 18 17.8 125.9 975 60 4 Image Chart
2003 8 22 00 17.6 124.6 970 65 5 Image Chart
2003 8 22 06 17.5 123.4 970 65 5 Image Chart
2003 8 22 12 17.4 122.2 970 65 5 Image Chart
2003 8 22 18 17.3 120.4 985 45 3 Image Chart
2003 8 23 00 17.3 119.4 985 50 4 Image Chart
2003 8 23 06 17.4 118.0 985 50 4 Image Chart
2003 8 23 12 17.7 116.9 980 55 4 Image Chart
2003 8 23 18 18.4 115.6 975 55 4 Image Chart
2003 8 24 00 19.0 114.7 975 55 4 Image Chart
2003 8 24 06 19.3 113.4 975 60 4 Image Chart
2003 8 24 12 19.4 112.6 975 60 4 Image Chart
2003 8 24 18 20.1 111.2 970 65 5 Image Chart
2003 8 25 00 20.7 110.2 970 65 5 Image Chart
2003 8 25 06 21.0 109.2 970 65 5 Image Chart
2003 8 25 12 21.3 107.9 975 55 4 Image Chart
2003 8 25 18 21.6 106.9 985 50 4 Image Chart
2003 8 26 00 22.2 105.8 990 40 3 Image Chart
2003 8 26 06 22.7 104.9 996 0 2 Image Chart
2003 8 26 12 22.0 103.0 1000 0 2 Image Chart
Japan Meteorological Agency Best Track Data | Correction Date : 2004-02-17
< Typhoon 200311 2003 Season Typhoon 200313 >

Help